Thurmond, North Carolina
Current Conditions -  °F | °C
As of 5:15 PM on Saturday 25 Oct 2014 (Local Time) from KUKF Reporting Station
Overcast Overcast  
Wind Chill: 70°   Ceiling: 7000
Heat Index: 70°   Visibility: 10mi
Dew Point: 41°   Wind: 3mph
Humidity: 35%   Direction: 240°WSW
Pressure: 29.98"   Gusts: NA
Location:  36.37°N, 80.93°W
Report Text: KUKF 252115Z AUTO 24003KT 10SM OVC070 21/05 A2998 RMK AO2
Loading
Personal Weather Stations






























Interactive Weather Map
Tropical Storm Tracking
New forecast layout! Learn more

10-Day Weather Forecast

Advertisements
Track Severe Weather on mobile